createdAt,value
2022-08-09T00:00:13.303Z,68.60
2022-08-09T00:02:42.841Z,68.03
2022-08-09T00:06:18.956Z,67.46
2022-08-09T00:08:02.344Z,67.10
2022-08-09T00:10:29.003Z,67.04
2022-08-09T00:12:56.911Z,66.89
2022-08-09T00:15:35.504Z,67.14
2022-08-09T00:18:12.333Z,68.96
2022-08-09T00:20:42.159Z,67.78
2022-08-09T00:23:55.199Z,67.55
2022-08-09T00:26:04.866Z,67.80
2022-08-09T00:28:32.221Z,67.90
2022-08-09T00:31:09.318Z,67.98
2022-08-09T00:33:52.437Z,68.59
2022-08-09T00:36:19.649Z,70.59
2022-08-09T00:38:46.162Z,71.32
2022-08-09T00:44:14.737Z,68.00
2022-08-09T00:44:19.571Z,70.41
2022-08-09T00:46:55.883Z,68.54
2022-08-09T00:49:24.672Z,68.35
2022-08-09T00:51:56.438Z,68.52
2022-08-09T00:54:35.110Z,68.28
2022-08-09T00:57:08.761Z,68.72
2022-08-09T00:59:46.714Z,69.75
2022-08-09T01:02:20.977Z,69.43
2022-08-09T01:04:57.253Z,68.54
2022-08-09T01:08:00.448Z,69.49
2022-08-09T01:10:45.813Z,68.27
2022-08-09T01:13:24.906Z,68.66
2022-08-09T01:15:59.334Z,68.55
2022-08-09T01:18:31.401Z,69.05
2022-08-09T01:21:17.042Z,68.36
2022-08-09T01:24:02.837Z,68.34
2022-08-09T01:26:43.149Z,68.77
2022-08-09T01:29:15.366Z,68.25
2022-08-09T01:32:32.042Z,68.37
2022-08-09T01:34:33.710Z,68.45
2022-08-09T01:37:02.645Z,68.74
2022-08-09T01:39:31.174Z,68.61
2022-08-09T01:42:10.901Z,69.05
2022-08-09T01:44:38.477Z,69.68
2022-08-09T01:47:05.993Z,70.17
2022-08-09T01:49:38.995Z,69.95
2022-08-09T01:52:10.654Z,69.83
2022-08-09T01:54:39.924Z,70.71
2022-08-09T01:57:10.896Z,71.51
2022-08-09T01:59:51.768Z,70.77
2022-08-09T02:02:22.545Z,69.71
2022-08-09T02:04:50.090Z,69.38
2022-08-09T02:08:40.139Z,69.67
2022-08-09T02:10:33.167Z,70.10
2022-08-09T02:13:03.277Z,70.71
2022-08-09T02:15:48.897Z,73.10
2022-08-09T02:18:23.931Z,75.09
2022-08-09T02:21:05.549Z,73.92
2022-08-09T02:23:39.911Z,74.88
2022-08-09T02:26:24.847Z,75.03
2022-08-09T02:28:56.191Z,74.45
2022-08-09T02:31:35.441Z,75.30
2022-08-09T02:34:13.563Z,73.23
2022-08-09T02:36:53.833Z,71.94
2022-08-09T02:39:33.754Z,72.00
2022-08-09T02:42:09.202Z,73.51
2022-08-09T02:44:46.606Z,72.66
2022-08-09T02:47:15.512Z,74.47
2022-08-09T02:50:01.516Z,74.31
2022-08-09T02:52:35.359Z,72.62
2022-08-09T02:55:03.422Z,72.28
2022-08-09T02:58:00.750Z,72.69
2022-08-09T03:00:35.629Z,72.82
2022-08-09T03:03:06.462Z,73.08
2022-08-09T03:05:35.280Z,74.48
2022-08-09T03:08:04.137Z,75.05
2022-08-09T03:10:31.580Z,76.54
2022-08-09T03:12:58.158Z,77.18
2022-08-09T03:15:25.921Z,76.46
2022-08-09T03:18:13.570Z,76.89
2022-08-09T03:20:45.987Z,77.34
2022-08-09T03:23:24.217Z,75.83
2022-08-09T03:25:57.995Z,74.85
2022-08-09T03:28:31.148Z,74.61
2022-08-09T03:30:58.303Z,77.89
2022-08-09T03:33:25.864Z,77.12
2022-08-09T03:36:16.313Z,75.94
2022-08-09T03:38:44.765Z,75.65
2022-08-09T03:41:16.678Z,77.21
2022-08-09T03:44:03.099Z,77.67
2022-08-09T03:46:32.318Z,76.69
2022-08-09T03:49:04.046Z,76.96
2022-08-09T03:51:57.382Z,76.37
2022-08-09T03:54:29.684Z,76.49
2022-08-09T03:56:58.293Z,77.22
2022-08-09T03:59:33.017Z,76.15
2022-08-09T04:02:11.466Z,75.77
2022-08-09T04:04:40.954Z,76.41
2022-08-09T04:07:12.256Z,74.39
2022-08-09T04:09:41.628Z,74.60
2022-08-09T04:12:30.822Z,75.50
2022-08-09T04:15:01.646Z,74.44
2022-08-09T04:17:29.611Z,73.83
2022-08-09T04:19:56.794Z,74.25
2022-08-09T04:22:23.628Z,75.42
2022-08-09T04:24:50.569Z,76.49
2022-08-09T04:27:22.265Z,75.44
2022-08-09T04:29:50.494Z,76.53
2022-08-09T04:32:34.145Z,77.53
2022-08-09T04:35:08.516Z,76.64
2022-08-09T04:37:45.602Z,75.14
2022-08-09T04:40:19.010Z,74.62
2022-08-09T04:42:48.652Z,74.71
2022-08-09T04:45:16.483Z,75.25
2022-08-09T04:48:01.115Z,76.04
2022-08-09T04:50:34.768Z,76.32
2022-08-09T04:53:13.112Z,76.88
2022-08-09T04:55:58.452Z,76.70
2022-08-09T04:58:27.528Z,76.94
2022-08-09T05:00:55.352Z,76.88
2022-08-09T05:03:40.549Z,76.77
2022-08-09T05:06:26.820Z,76.48
2022-08-09T05:09:00.510Z,77.11
2022-08-09T05:11:32.271Z,76.03
2022-08-09T05:14:02.190Z,76.77
2022-08-09T05:16:32.878Z,75.92
2022-08-09T05:19:00.656Z,76.94
2022-08-09T05:21:30.264Z,77.25
2022-08-09T05:24:04.032Z,76.76
2022-08-09T05:26:36.434Z,76.29
2022-08-09T05:29:17.214Z,75.07
2022-08-09T05:31:48.295Z,75.36
2022-08-09T05:34:18.550Z,75.91
2022-08-09T05:36:47.228Z,76.25
2022-08-09T05:39:28.872Z,76.00
2022-08-09T05:42:04.336Z,75.39
2022-08-09T05:44:32.762Z,74.50
2022-08-09T05:47:01.221Z,74.90
2022-08-09T05:50:23.311Z,74.00
2022-08-09T05:52:18.141Z,73.80
2022-08-09T05:54:49.204Z,71.87
2022-08-09T05:57:17.510Z,72.02
2022-08-09T05:59:45.964Z,72.27
2022-08-09T06:02:17.043Z,72.21
2022-08-09T06:04:46.272Z,73.84
2022-08-09T06:07:21.380Z,75.01
2022-08-09T06:10:01.743Z,74.91
2022-08-09T06:12:31.021Z,74.72
2022-08-09T06:15:01.129Z,75.37
2022-08-09T06:17:39.157Z,74.56
2022-08-09T06:20:08.291Z,75.09
2022-08-09T06:22:35.674Z,74.73
2022-08-09T06:25:02.979Z,73.23
2022-08-09T06:27:42.389Z,74.17
2022-08-09T06:30:16.052Z,73.89
2022-08-09T06:33:00.960Z,74.27
2022-08-09T06:35:35.878Z,72.67
2022-08-09T06:38:17.276Z,73.27
2022-08-09T06:40:46.000Z,73.40
2022-08-09T06:43:13.583Z,72.87
2022-08-09T06:46:07.039Z,70.89
2022-08-09T06:48:30.949Z,72.70
2022-08-09T06:50:59.282Z,72.84
2022-08-09T06:53:25.846Z,71.74
2022-08-09T06:55:52.669Z,71.21
2022-08-09T06:58:40.765Z,70.32
2022-08-09T07:01:08.058Z,70.54
2022-08-09T07:03:39.665Z,70.52
2022-08-09T07:06:19.994Z,69.16
2022-08-09T07:08:46.919Z,69.31
2022-08-09T07:11:17.725Z,69.98
2022-08-09T07:14:04.436Z,69.68
2022-08-09T07:16:39.116Z,67.09
2022-08-09T07:19:07.776Z,66.09
2022-08-09T07:21:34.419Z,65.08
2022-08-09T07:24:03.311Z,64.87
2022-08-09T07:26:31.913Z,64.67
2022-08-09T07:29:09.187Z,65.07
2022-08-09T07:31:45.573Z,64.92
2022-08-09T07:34:20.618Z,64.46
2022-08-09T07:36:49.145Z,63.00
2022-08-09T07:39:20.518Z,61.47
2022-08-09T07:42:02.625Z,59.58
2022-08-09T07:44:36.988Z,60.24
2022-08-09T07:47:16.248Z,60.32
2022-08-09T07:49:52.302Z,57.59
2022-08-09T07:52:30.151Z,54.75
2022-08-09T07:54:57.545Z,54.36
2022-08-09T07:57:24.145Z,54.56
2022-08-09T08:00:03.073Z,55.23
2022-08-09T08:02:30.617Z,54.07
2022-08-09T08:04:57.381Z,52.14
2022-08-09T08:08:43.437Z,53.37
2022-08-09T08:10:11.863Z,52.54
2022-08-09T08:12:42.490Z,52.52
2022-08-09T08:15:16.849Z,53.81
2022-08-09T08:17:52.992Z,53.10
2022-08-09T08:20:28.794Z,51.33
2022-08-09T08:22:58.575Z,53.18
2022-08-09T08:25:44.071Z,52.23
2022-08-09T08:28:14.403Z,52.37
2022-08-09T08:30:43.241Z,53.63
2022-08-09T08:33:12.051Z,51.31
2022-08-09T08:35:53.187Z,51.72
2022-08-09T08:38:28.268Z,50.64
2022-08-09T08:40:55.963Z,50.87
2022-08-09T08:43:24.226Z,50.63
2022-08-09T08:46:04.036Z,52.66
2022-08-09T08:48:51.437Z,54.58
2022-08-09T08:51:18.865Z,52.42
2022-08-09T08:54:03.739Z,49.29
2022-08-09T08:56:37.484Z,51.58
2022-08-09T08:59:18.994Z,53.08
2022-08-09T09:01:53.371Z,52.54
2022-08-09T09:04:31.204Z,50.57
2022-08-09T09:07:07.866Z,50.42
2022-08-09T09:09:58.786Z,47.45
2022-08-09T09:12:29.063Z,47.22
2022-08-09T09:14:58.753Z,49.77
2022-08-09T09:17:25.414Z,51.02
2022-08-09T09:20:15.390Z,48.88
2022-08-09T09:22:55.734Z,47.64
2022-08-09T09:26:03.620Z,44.83
2022-08-09T09:28:39.161Z,48.05
2022-08-09T09:31:17.185Z,47.81
2022-08-09T09:33:44.900Z,49.80
2022-08-09T09:36:20.358Z,50.40
2022-08-09T09:38:56.846Z,48.37
2022-08-09T09:41:24.030Z,43.67
2022-08-09T09:44:12.925Z,42.07
2022-08-09T09:46:42.915Z,41.15
2022-08-09T09:49:13.543Z,42.10
2022-08-09T09:51:41.420Z,43.47
2022-08-09T09:54:21.025Z,44.43
2022-08-09T09:56:53.276Z,43.38
2022-08-09T09:59:36.131Z,44.59
2022-08-09T10:02:02.699Z,42.28
2022-08-09T10:04:30.419Z,39.79
2022-08-09T10:06:57.285Z,40.30
2022-08-09T10:09:24.356Z,38.65
2022-08-09T10:12:14.390Z,41.68
2022-08-09T10:14:47.992Z,43.14
2022-08-09T10:17:51.229Z,43.44
2022-08-09T10:20:15.025Z,45.25
2022-08-09T10:22:42.214Z,44.32
2022-08-09T10:25:11.696Z,48.39
2022-08-09T10:27:57.329Z,47.42
2022-08-09T10:34:05.261Z,43.28
2022-08-09T10:36:01.240Z,42.36
2022-08-09T10:38:55.363Z,39.32
2022-08-09T10:41:17.794Z,38.80
2022-08-09T10:43:50.767Z,38.85
2022-08-09T10:46:26.863Z,37.24
2022-08-09T10:48:59.034Z,36.42
2022-08-09T10:51:52.990Z,34.75
2022-08-09T10:54:24.072Z,40.31
2022-08-09T10:57:08.729Z,42.89
2022-08-09T10:59:55.265Z,42.85
2022-08-09T11:03:12.073Z,44.09
2022-08-09T11:05:30.103Z,43.79
2022-08-09T11:07:59.447Z,45.08
2022-08-09T11:10:53.303Z,45.05
2022-08-09T11:13:49.432Z,45.21
2022-08-09T11:16:43.533Z,46.76
2022-08-09T11:19:13.693Z,45.93
2022-08-09T11:21:57.246Z,43.54
2022-08-09T11:25:10.366Z,43.44
2022-08-09T11:28:05.637Z,41.50
2022-08-09T11:30:32.779Z,37.94
2022-08-09T11:33:16.546Z,37.83
2022-08-09T11:35:49.088Z,38.74
2022-08-09T11:38:32.926Z,40.48
2022-08-09T11:41:05.276Z,38.67
2022-08-09T11:43:32.311Z,37.67
2022-08-09T11:46:04.815Z,38.22
2022-08-09T11:48:35.999Z,39.64
2022-08-09T11:51:21.324Z,40.40
2022-08-09T11:54:27.453Z,40.68
2022-08-09T11:58:00.778Z,41.67
2022-08-09T12:00:27.493Z,42.09
2022-08-09T12:02:56.492Z,41.61
2022-08-09T12:05:39.737Z,40.81
2022-08-09T12:08:21.546Z,41.17
2022-08-09T12:10:50.018Z,43.22
2022-08-09T12:14:10.046Z,43.25
2022-08-09T12:16:39.981Z,42.33
2022-08-09T12:19:09.670Z,42.23
2022-08-09T12:21:38.280Z,41.96
2022-08-09T12:24:09.628Z,41.05
2022-08-09T12:26:44.903Z,41.46
2022-08-09T12:29:43.719Z,42.42
2022-08-09T12:32:25.747Z,40.92
2022-08-09T12:35:02.607Z,40.99
2022-08-09T12:37:49.912Z,40.51
2022-08-09T12:40:18.934Z,41.18
2022-08-09T12:42:46.050Z,40.60
2022-08-09T12:45:34.206Z,41.82
2022-08-09T12:47:59.758Z,41.74
2022-08-09T12:50:27.247Z,42.78
2022-08-09T12:53:09.249Z,41.88
2022-08-09T12:56:12.145Z,40.56
2022-08-09T12:58:28.714Z,42.42
2022-08-09T13:00:56.062Z,41.87
2022-08-09T13:03:53.528Z,41.24
2022-08-09T13:06:34.739Z,40.67
2022-08-09T13:09:30.517Z,39.25
2022-08-09T13:12:02.873Z,39.02
2022-08-09T13:14:41.899Z,37.22
2022-08-09T13:17:43.672Z,37.66
2022-08-09T13:20:13.962Z,39.36
2022-08-09T13:23:01.265Z,36.24
2022-08-09T13:25:52.881Z,38.13
2022-08-09T13:28:33.827Z,36.79
2022-08-09T13:32:13.912Z,39.43
2022-08-09T13:33:56.841Z,40.53
2022-08-09T13:36:41.032Z,41.13
2022-08-09T13:41:55.968Z,40.77
2022-08-09T13:42:02.515Z,42.81
2022-08-09T13:44:30.230Z,42.97
2022-08-09T13:47:29.404Z,44.16
2022-08-09T13:49:58.203Z,43.15
2022-08-09T13:52:29.251Z,40.48
2022-08-09T13:54:58.894Z,39.32
2022-08-09T13:57:37.388Z,38.16
2022-08-09T14:00:07.428Z,38.62
2022-08-09T14:02:42.022Z,38.74
2022-08-09T14:05:13.494Z,39.57
2022-08-09T14:08:01.417Z,40.25
2022-08-09T14:10:37.689Z,39.55
2022-08-09T14:13:27.948Z,39.22
2022-08-09T14:16:07.024Z,40.41
2022-08-09T14:18:37.254Z,40.60
2022-08-09T14:21:04.103Z,40.66
2022-08-09T14:23:40.127Z,40.87
2022-08-09T14:26:20.442Z,40.31
2022-08-09T14:28:47.574Z,40.93
2022-08-09T14:31:14.197Z,40.94
2022-08-09T14:33:40.672Z,40.46
2022-08-09T14:36:20.875Z,41.43
2022-08-09T14:38:52.614Z,41.38
2022-08-09T14:41:34.617Z,41.16
2022-08-09T14:44:06.468Z,40.64
2022-08-09T14:46:54.552Z,39.58
2022-08-09T14:49:23.696Z,42.38
2022-08-09T14:51:50.843Z,43.11
2022-08-09T14:54:27.687Z,43.53
2022-08-09T14:56:58.651Z,44.37
2022-08-09T14:59:27.385Z,43.79
2022-08-09T15:01:55.498Z,42.79
2022-08-09T15:04:23.649Z,42.17
2022-08-09T15:06:51.433Z,44.49
2022-08-09T15:09:30.462Z,45.56
2022-08-09T15:12:07.814Z,44.81
2022-08-09T15:14:35.058Z,45.03
2022-08-09T15:17:07.764Z,44.97
2022-08-09T15:19:36.625Z,45.70
2022-08-09T15:22:03.783Z,46.75
2022-08-09T15:24:32.020Z,46.67
2022-08-09T15:26:59.652Z,46.29
2022-08-09T15:30:57.390Z,45.88
2022-08-09T15:32:29.671Z,45.87
2022-08-09T15:35:01.422Z,47.20
2022-08-09T15:37:37.833Z,46.46
2022-08-09T15:40:22.546Z,46.01
2022-08-09T15:42:52.715Z,46.18
2022-08-09T15:45:29.440Z,47.76
2022-08-09T15:48:05.557Z,47.25
2022-08-09T15:50:43.865Z,45.68
2022-08-09T15:53:17.915Z,47.43
2022-08-09T15:56:21.578Z,46.60
2022-08-09T15:58:46.496Z,45.96
2022-08-09T16:01:13.420Z,46.81
2022-08-09T16:03:41.502Z,45.65
2022-08-09T16:06:32.401Z,46.27
2022-08-09T16:08:56.187Z,46.22
2022-08-09T16:11:22.736Z,46.82
2022-08-09T16:14:04.922Z,46.34
2022-08-09T16:16:34.683Z,46.01
2022-08-09T16:19:04.515Z,45.87
2022-08-09T16:21:31.837Z,46.31
2022-08-09T16:24:02.336Z,47.22
2022-08-09T16:26:35.254Z,46.91
2022-08-09T16:29:14.020Z,47.12
2022-08-09T16:32:18.802Z,47.11
2022-08-09T16:34:55.063Z,47.27
2022-08-09T16:37:18.686Z,47.64
2022-08-09T16:39:48.154Z,47.80
2022-08-09T16:42:29.058Z,46.74
2022-08-09T16:44:55.977Z,46.60
2022-08-09T16:48:43.399Z,47.44
2022-08-09T16:50:31.101Z,47.27
2022-08-09T16:52:56.154Z,47.52
2022-08-09T16:55:23.315Z,47.58
2022-08-09T16:58:10.268Z,48.39
2022-08-09T17:00:36.735Z,48.94
2022-08-09T17:03:05.253Z,48.84
2022-08-09T17:06:07.578Z,47.65
2022-08-09T17:08:44.100Z,48.12
2022-08-09T17:11:06.769Z,47.87
2022-08-09T17:13:34.310Z,47.68
2022-08-09T17:16:02.292Z,49.37
2022-08-09T17:18:30.037Z,48.72
2022-08-09T17:20:56.920Z,48.06
2022-08-09T17:23:23.866Z,48.75
2022-08-09T17:26:10.448Z,47.38
2022-08-09T17:28:39.054Z,46.84
2022-08-09T17:31:05.866Z,48.38
2022-08-09T17:33:35.982Z,47.63
2022-08-09T17:36:04.854Z,48.90
2022-08-09T17:38:37.105Z,49.23
2022-08-09T17:41:05.745Z,48.49
2022-08-09T17:43:37.014Z,48.69
2022-08-09T17:46:08.819Z,48.33
2022-08-09T17:48:51.776Z,49.03
2022-08-09T17:51:19.991Z,48.93
2022-08-09T17:53:51.918Z,50.96
2022-08-09T17:56:32.418Z,50.24
2022-08-09T17:59:09.048Z,50.15
2022-08-09T18:01:40.790Z,50.35
2022-08-09T18:04:22.672Z,49.04
2022-08-09T18:06:54.300Z,50.54
2022-08-09T18:09:23.152Z,50.93
2022-08-09T18:12:14.637Z,50.95
2022-08-09T18:14:38.029Z,51.35
2022-08-09T18:17:27.325Z,50.34
2022-08-09T18:20:56.016Z,49.93
2022-08-09T18:22:54.644Z,50.11
2022-08-09T18:25:21.161Z,50.14
2022-08-09T18:28:21.556Z,50.78
2022-08-09T18:30:54.703Z,50.30
2022-08-09T18:33:23.016Z,50.71
2022-08-09T18:36:00.185Z,50.55
2022-08-09T18:38:27.413Z,50.57
2022-08-09T18:40:55.388Z,51.04
2022-08-09T18:43:23.276Z,50.92
2022-08-09T18:46:47.136Z,50.65
2022-08-09T18:48:36.606Z,50.84
2022-08-09T18:51:03.191Z,50.80
2022-08-09T18:53:56.497Z,50.91
2022-08-09T18:56:20.093Z,51.51
2022-08-09T18:58:55.247Z,49.91
2022-08-09T19:01:22.450Z,50.91
2022-08-09T19:03:54.643Z,51.13
2022-08-09T19:06:32.924Z,51.03
2022-08-09T19:09:02.480Z,51.38
2022-08-09T19:11:37.380Z,51.79
2022-08-09T19:14:06.614Z,51.50
2022-08-09T19:16:36.524Z,51.68
2022-08-09T19:19:26.126Z,51.42
2022-08-09T19:22:04.800Z,51.85
2022-08-09T19:25:07.508Z,52.55
2022-08-09T19:27:21.007Z,52.79
2022-08-09T19:30:21.478Z,52.49
2022-08-09T19:32:35.912Z,53.22
2022-08-09T19:35:04.352Z,53.87
2022-08-09T19:37:41.118Z,54.07
2022-08-09T19:40:19.383Z,54.47
2022-08-09T19:42:49.497Z,55.05
2022-08-09T19:45:16.525Z,54.40
2022-08-09T19:47:44.415Z,54.49
2022-08-09T19:50:50.293Z,55.30
2022-08-09T19:52:59.437Z,54.74
2022-08-09T19:55:39.120Z,54.74
2022-08-09T19:58:16.081Z,55.20
2022-08-09T20:00:45.554Z,55.69
2022-08-09T20:04:10.799Z,56.23
2022-08-09T20:05:59.386Z,55.34
2022-08-09T20:08:34.847Z,56.24
2022-08-09T20:11:02.726Z,56.04
2022-08-09T20:13:32.259Z,56.26
2022-08-09T20:16:35.051Z,55.82
2022-08-09T20:19:04.000Z,55.83
2022-08-09T20:21:54.979Z,56.43
2022-08-09T20:24:29.853Z,56.54
2022-08-09T20:27:01.006Z,57.33
2022-08-09T20:29:32.478Z,57.42
2022-08-09T20:32:31.258Z,57.99
2022-08-09T20:34:50.786Z,57.89
2022-08-09T20:37:21.586Z,57.85
2022-08-09T20:40:15.716Z,57.93
2022-08-09T20:42:37.721Z,58.14
2022-08-09T20:45:59.103Z,58.21
2022-08-09T20:47:52.276Z,57.44
2022-08-09T20:50:46.658Z,57.77
2022-08-09T20:53:05.614Z,58.41
2022-08-09T20:56:01.967Z,58.77
2022-08-09T20:58:32.288Z,59.10
2022-08-09T21:01:14.166Z,58.81
2022-08-09T21:05:48.298Z,59.66
2022-08-09T21:06:36.006Z,60.28
2022-08-09T21:09:03.354Z,59.78
2022-08-09T21:14:17.058Z,60.75
2022-08-09T21:16:45.945Z,61.66
2022-08-09T21:20:17.809Z,60.36
2022-08-09T21:22:00.023Z,61.35
2022-08-09T21:24:28.821Z,62.58
2022-08-09T21:26:59.937Z,61.39
2022-08-09T21:29:49.614Z,62.81
2022-08-09T21:32:18.774Z,61.25
2022-08-09T21:34:49.259Z,60.92
2022-08-09T21:37:18.123Z,62.20
2022-08-09T21:39:45.208Z,61.94
2022-08-09T21:42:17.220Z,62.51
2022-08-09T21:44:44.640Z,62.32
2022-08-09T21:47:17.561Z,62.29
2022-08-09T21:49:45.394Z,62.89
2022-08-09T21:52:15.010Z,63.69
2022-08-09T21:55:03.302Z,63.54
2022-08-09T21:57:39.385Z,63.82
2022-08-09T22:00:26.821Z,63.73
2022-08-09T22:03:01.166Z,65.88
2022-08-09T22:05:36.931Z,64.60
2022-08-09T22:08:13.745Z,63.29
2022-08-09T22:11:50.505Z,63.68
2022-08-09T22:13:34.497Z,63.80
2022-08-09T22:16:07.834Z,63.42
2022-08-09T22:18:35.191Z,64.41
2022-08-09T22:21:03.796Z,64.11
2022-08-09T22:23:58.524Z,65.23
2022-08-09T22:26:34.372Z,64.64
2022-08-09T22:29:07.205Z,64.20
2022-08-09T22:31:44.569Z,64.09
2022-08-09T22:34:25.717Z,64.26
2022-08-09T22:36:53.211Z,64.32
2022-08-09T22:39:47.275Z,65.10
2022-08-09T22:42:16.233Z,64.93
2022-08-09T22:44:48.522Z,65.46
2022-08-09T22:48:12.784Z,65.93
2022-08-09T22:50:13.493Z,66.61
2022-08-09T22:52:40.031Z,67.20
2022-08-09T22:55:09.032Z,66.90
2022-08-09T22:58:00.204Z,67.16
2022-08-09T23:00:29.629Z,68.08
2022-08-09T23:02:56.256Z,66.62
2022-08-09T23:05:22.818Z,66.06
2022-08-09T23:08:22.286Z,65.84
2022-08-09T23:10:55.879Z,65.88
2022-08-09T23:13:22.371Z,65.88
2022-08-09T23:16:02.823Z,66.14
2022-08-09T23:18:30.737Z,65.81
2022-08-09T23:20:57.206Z,67.14
2022-08-09T23:23:23.723Z,66.30
2022-08-09T23:25:50.307Z,66.49
2022-08-09T23:28:16.794Z,65.76
2022-08-09T23:30:51.546Z,65.69
2022-08-09T23:33:22.286Z,66.35
2022-08-09T23:36:06.391Z,66.26
2022-08-09T23:38:33.861Z,66.85
2022-08-09T23:41:01.365Z,66.92
2022-08-09T23:43:27.856Z,66.86
2022-08-09T23:45:54.347Z,67.55
2022-08-09T23:48:20.913Z,67.05
2022-08-09T23:50:47.421Z,67.37
2022-08-09T23:53:13.892Z,67.02
2022-08-09T23:55:41.459Z,66.91
2022-08-09T23:58:25.816Z,66.14
